sensor_id;sensor_type;location;lat;lon;timestamp;P1;durP1;ratioP1;P2;durP2;ratioP2
78027;SDS011;67235;45.638;11.714;2023-02-02T00:01:17;133.38;;;51.80;;
78027;SDS011;67235;45.638;11.714;2023-02-02T00:03:44;134.02;;;52.13;;
78027;SDS011;67235;45.638;11.714;2023-02-02T00:06:10;131.97;;;51.90;;
78027;SDS011;67235;45.638;11.714;2023-02-02T00:08:36;130.30;;;51.17;;
78027;SDS011;67235;45.638;11.714;2023-02-02T00:11:03;146.00;;;55.75;;
78027;SDS011;67235;45.638;11.714;2023-02-02T00:13:30;136.50;;;51.97;;
78027;SDS011;67235;45.638;11.714;2023-02-02T00:15:56;133.18;;;51.05;;
78027;SDS011;67235;45.638;11.714;2023-02-02T00:18:22;141.63;;;52.73;;
78027;SDS011;67235;45.638;11.714;2023-02-02T00:20:48;137.45;;;53.20;;
78027;SDS011;67235;45.638;11.714;2023-02-02T00:23:14;144.43;;;51.90;;
78027;SDS011;67235;45.638;11.714;2023-02-02T00:25:42;131.80;;;51.38;;
78027;SDS011;67235;45.638;11.714;2023-02-02T00:28:08;131.00;;;50.83;;
78027;SDS011;67235;45.638;11.714;2023-02-02T00:30:34;138.30;;;52.25;;
78027;SDS011;67235;45.638;11.714;2023-02-02T00:32:59;131.37;;;50.20;;
78027;SDS011;67235;45.638;11.714;2023-02-02T00:35:25;143.07;;;53.08;;
78027;SDS011;67235;45.638;11.714;2023-02-02T00:37:51;128.63;;;49.97;;
78027;SDS011;67235;45.638;11.714;2023-02-02T00:40:17;126.03;;;51.33;;
78027;SDS011;67235;45.638;11.714;2023-02-02T00:42:43;127.10;;;50.90;;
78027;SDS011;67235;45.638;11.714;2023-02-02T00:45:13;145.23;;;56.70;;
78027;SDS011;67235;45.638;11.714;2023-02-02T00:47:46;132.53;;;52.83;;
78027;SDS011;67235;45.638;11.714;2023-02-02T00:50:17;128.02;;;50.13;;
78027;SDS011;67235;45.638;11.714;2023-02-02T00:52:45;123.40;;;48.47;;
78027;SDS011;67235;45.638;11.714;2023-02-02T00:55:13;122.90;;;49.53;;
78027;SDS011;67235;45.638;11.714;2023-02-02T00:57:39;123.72;;;46.97;;
78027;SDS011;67235;45.638;11.714;2023-02-02T01:00:06;128.43;;;49.70;;
78027;SDS011;67235;45.638;11.714;2023-02-02T01:02:33;121.55;;;47.30;;
78027;SDS011;67235;45.638;11.714;2023-02-02T01:05:00;120.47;;;48.97;;
78027;SDS011;67235;45.638;11.714;2023-02-02T01:07:26;142.98;;;52.83;;
78027;SDS011;67235;45.638;11.714;2023-02-02T01:09:52;130.57;;;48.65;;
78027;SDS011;67235;45.638;11.714;2023-02-02T01:12:18;123.17;;;48.07;;
78027;SDS011;67235;45.638;11.714;2023-02-02T01:14:44;126.18;;;50.42;;
78027;SDS011;67235;45.638;11.714;2023-02-02T01:17:10;124.13;;;47.03;;
78027;SDS011;67235;45.638;11.714;2023-02-02T01:19:36;122.80;;;46.00;;
78027;SDS011;67235;45.638;11.714;2023-02-02T01:22:02;139.18;;;50.70;;
78027;SDS011;67235;45.638;11.714;2023-02-02T01:24:28;135.87;;;49.87;;
78027;SDS011;67235;45.638;11.714;2023-02-02T01:26:54;130.43;;;48.83;;
78027;SDS011;67235;45.638;11.714;2023-02-02T01:29:20;127.75;;;48.45;;
78027;SDS011;67235;45.638;11.714;2023-02-02T01:31:46;133.93;;;50.40;;
78027;SDS011;67235;45.638;11.714;2023-02-02T01:34:12;126.17;;;46.63;;
78027;SDS011;67235;45.638;11.714;2023-02-02T01:36:38;115.03;;;45.53;;
78027;SDS011;67235;45.638;11.714;2023-02-02T01:39:04;127.17;;;46.93;;
78027;SDS011;67235;45.638;11.714;2023-02-02T01:41:30;105.40;;;42.90;;
78027;SDS011;67235;45.638;11.714;2023-02-02T01:43:57;115.43;;;47.10;;
78027;SDS011;67235;45.638;11.714;2023-02-02T01:46:26;121.93;;;46.90;;
78027;SDS011;67235;45.638;11.714;2023-02-02T01:51:24;120.15;;;43.85;;
78027;SDS011;67235;45.638;11.714;2023-02-02T01:53:54;128.40;;;47.58;;
78027;SDS011;67235;45.638;11.714;2023-02-02T01:56:25;122.63;;;46.25;;
78027;SDS011;67235;45.638;11.714;2023-02-02T01:58:54;131.37;;;47.67;;
78027;SDS011;67235;45.638;11.714;2023-02-02T02:01:21;111.82;;;44.38;;
78027;SDS011;67235;45.638;11.714;2023-02-02T02:03:47;111.20;;;43.13;;
78027;SDS011;67235;45.638;11.714;2023-02-02T02:06:14;124.93;;;45.13;;
78027;SDS011;67235;45.638;11.714;2023-02-02T02:11:22;113.63;;;41.28;;
78027;SDS011;67235;45.638;11.714;2023-02-02T02:13:49;115.50;;;42.55;;
78027;SDS011;67235;45.638;11.714;2023-02-02T02:16:59;109.28;;;42.28;;
78027;SDS011;67235;45.638;11.714;2023-02-02T02:19:54;102.03;;;40.25;;
78027;SDS011;67235;45.638;11.714;2023-02-02T02:34:41;122.38;;;46.35;;
78027;SDS011;67235;45.638;11.714;2023-02-02T02:42:18;115.75;;;41.78;;
78027;SDS011;67235;45.638;11.714;2023-02-02T02:44:48;110.68;;;42.35;;
78027;SDS011;67235;45.638;11.714;2023-02-02T02:47:14;103.10;;;41.58;;
78027;SDS011;67235;45.638;11.714;2023-02-02T02:49:42;112.67;;;41.13;;
78027;SDS011;67235;45.638;11.714;2023-02-02T02:52:09;113.70;;;41.03;;
78027;SDS011;67235;45.638;11.714;2023-02-02T02:57:31;109.53;;;39.20;;
78027;SDS011;67235;45.638;11.714;2023-02-02T03:03:07;151.80;;;44.90;;
78027;SDS011;67235;45.638;11.714;2023-02-02T03:11:09;141.18;;;47.50;;
78027;SDS011;67235;45.638;11.714;2023-02-02T03:13:37;158.02;;;49.78;;
78027;SDS011;67235;45.638;11.714;2023-02-02T03:16:04;153.57;;;47.00;;
78027;SDS011;67235;45.638;11.714;2023-02-02T03:18:30;138.38;;;47.65;;
78027;SDS011;67235;45.638;11.714;2023-02-02T03:20:57;140.80;;;49.83;;
78027;SDS011;67235;45.638;11.714;2023-02-02T03:23:23;155.80;;;51.95;;
78027;SDS011;67235;45.638;11.714;2023-02-02T03:25:50;125.25;;;47.33;;
78027;SDS011;67235;45.638;11.714;2023-02-02T03:28:16;130.87;;;43.80;;
78027;SDS011;67235;45.638;11.714;2023-02-02T03:30:43;109.38;;;41.25;;
78027;SDS011;67235;45.638;11.714;2023-02-02T03:33:10;131.73;;;46.72;;
78027;SDS011;67235;45.638;11.714;2023-02-02T03:35:38;133.15;;;45.67;;
78027;SDS011;67235;45.638;11.714;2023-02-02T03:38:04;120.97;;;43.90;;
78027;SDS011;67235;45.638;11.714;2023-02-02T03:40:30;115.97;;;40.28;;
78027;SDS011;67235;45.638;11.714;2023-02-02T03:42:56;111.72;;;41.72;;
78027;SDS011;67235;45.638;11.714;2023-02-02T03:45:22;120.90;;;41.77;;
78027;SDS011;67235;45.638;11.714;2023-02-02T03:47:48;119.20;;;43.15;;
78027;SDS011;67235;45.638;11.714;2023-02-02T03:50:14;116.35;;;41.50;;
78027;SDS011;67235;45.638;11.714;2023-02-02T03:52:40;120.00;;;40.90;;
78027;SDS011;67235;45.638;11.714;2023-02-02T03:55:06;119.38;;;41.83;;
78027;SDS011;67235;45.638;11.714;2023-02-02T03:57:32;115.88;;;42.80;;
78027;SDS011;67235;45.638;11.714;2023-02-02T03:59:57;116.67;;;43.47;;
78027;SDS011;67235;45.638;11.714;2023-02-02T04:02:23;121.22;;;45.15;;
78027;SDS011;67235;45.638;11.714;2023-02-02T04:04:49;165.83;;;65.10;;
78027;SDS011;67235;45.638;11.714;2023-02-02T04:07:15;133.63;;;53.10;;
78027;SDS011;67235;45.638;11.714;2023-02-02T04:09:42;104.75;;;37.72;;
78027;SDS011;67235;45.638;11.714;2023-02-02T04:12:08;108.03;;;39.53;;
78027;SDS011;67235;45.638;11.714;2023-02-02T04:14:34;111.35;;;41.03;;
78027;SDS011;67235;45.638;11.714;2023-02-02T04:16:59;191.70;;;77.50;;
78027;SDS011;67235;45.638;11.714;2023-02-02T04:19:25;129.87;;;48.93;;
78027;SDS011;67235;45.638;11.714;2023-02-02T04:21:51;101.90;;;38.60;;
78027;SDS011;67235;45.638;11.714;2023-02-02T04:24:18;114.53;;;43.57;;
78027;SDS011;67235;45.638;11.714;2023-02-02T04:26:44;104.35;;;38.20;;
78027;SDS011;67235;45.638;11.714;2023-02-02T04:29:10;134.35;;;48.28;;
78027;SDS011;67235;45.638;11.714;2023-02-02T04:31:36;112.67;;;38.50;;
78027;SDS011;67235;45.638;11.714;2023-02-02T04:34:03;104.20;;;37.63;;
78027;SDS011;67235;45.638;11.714;2023-02-02T04:36:29;107.68;;;41.60;;
78027;SDS011;67235;45.638;11.714;2023-02-02T04:38:55;96.05;;;38.58;;
78027;SDS011;67235;45.638;11.714;2023-02-02T04:41:22;99.50;;;39.13;;
78027;SDS011;67235;45.638;11.714;2023-02-02T04:43:48;104.35;;;40.15;;
78027;SDS011;67235;45.638;11.714;2023-02-02T04:46:14;104.63;;;39.70;;
78027;SDS011;67235;45.638;11.714;2023-02-02T04:48:40;121.55;;;44.05;;
78027;SDS011;67235;45.638;11.714;2023-02-02T04:51:09;104.17;;;38.90;;
78027;SDS011;67235;45.638;11.714;2023-02-02T04:53:37;106.68;;;39.30;;
78027;SDS011;67235;45.638;11.714;2023-02-02T04:56:12;116.88;;;45.33;;
78027;SDS011;67235;45.638;11.714;2023-02-02T04:58:42;108.65;;;43.90;;
78027;SDS011;67235;45.638;11.714;2023-02-02T05:01:10;103.20;;;39.22;;
78027;SDS011;67235;45.638;11.714;2023-02-02T05:03:38;121.80;;;43.63;;
78027;SDS011;67235;45.638;11.714;2023-02-02T05:06:04;106.90;;;40.05;;
78027;SDS011;67235;45.638;11.714;2023-02-02T05:08:31;115.55;;;39.65;;
78027;SDS011;67235;45.638;11.714;2023-02-02T05:10:56;109.57;;;39.17;;
78027;SDS011;67235;45.638;11.714;2023-02-02T05:13:23;117.75;;;41.00;;
78027;SDS011;67235;45.638;11.714;2023-02-02T05:15:48;117.13;;;39.10;;
78027;SDS011;67235;45.638;11.714;2023-02-02T05:18:14;95.07;;;35.50;;
78027;SDS011;67235;45.638;11.714;2023-02-02T05:20:40;113.25;;;41.22;;
78027;SDS011;67235;45.638;11.714;2023-02-02T05:23:06;109.30;;;40.20;;
78027;SDS011;67235;45.638;11.714;2023-02-02T05:25:32;102.00;;;37.67;;
78027;SDS011;67235;45.638;11.714;2023-02-02T05:27:57;116.40;;;42.83;;
78027;SDS011;67235;45.638;11.714;2023-02-02T05:30:23;116.03;;;41.80;;
78027;SDS011;67235;45.638;11.714;2023-02-02T05:32:49;126.22;;;42.15;;
78027;SDS011;67235;45.638;11.714;2023-02-02T05:35:15;199.98;;;44.35;;
78027;SDS011;67235;45.638;11.714;2023-02-02T05:37:41;152.57;;;51.30;;
78027;SDS011;67235;45.638;11.714;2023-02-02T05:40:08;176.80;;;45.70;;
78027;SDS011;67235;45.638;11.714;2023-02-02T05:42:34;144.93;;;44.88;;
78027;SDS011;67235;45.638;11.714;2023-02-02T05:45:00;157.60;;;45.55;;
78027;SDS011;67235;45.638;11.714;2023-02-02T05:47:26;138.10;;;45.40;;
78027;SDS011;67235;45.638;11.714;2023-02-02T05:49:52;157.13;;;43.40;;
78027;SDS011;67235;45.638;11.714;2023-02-02T05:52:18;133.32;;;43.65;;
78027;SDS011;67235;45.638;11.714;2023-02-02T05:54:46;120.37;;;41.50;;
78027;SDS011;67235;45.638;11.714;2023-02-02T05:57:13;145.32;;;47.08;;
78027;SDS011;67235;45.638;11.714;2023-02-02T05:59:38;188.98;;;48.85;;
78027;SDS011;67235;45.638;11.714;2023-02-02T06:02:05;208.03;;;43.37;;
78027;SDS011;67235;45.638;11.714;2023-02-02T06:04:32;161.45;;;41.47;;
78027;SDS011;67235;45.638;11.714;2023-02-02T06:07:01;125.82;;;41.25;;
78027;SDS011;67235;45.638;11.714;2023-02-02T06:09:27;162.00;;;42.95;;
78027;SDS011;67235;45.638;11.714;2023-02-02T06:11:53;134.95;;;45.08;;
78027;SDS011;67235;45.638;11.714;2023-02-02T06:14:18;132.73;;;43.80;;
78027;SDS011;67235;45.638;11.714;2023-02-02T06:16:44;125.87;;;43.13;;
78027;SDS011;67235;45.638;11.714;2023-02-02T06:19:10;122.35;;;44.83;;
78027;SDS011;67235;45.638;11.714;2023-02-02T06:21:36;112.00;;;39.17;;
78027;SDS011;67235;45.638;11.714;2023-02-02T06:24:03;113.37;;;39.67;;
78027;SDS011;67235;45.638;11.714;2023-02-02T06:26:29;121.25;;;44.55;;
78027;SDS011;67235;45.638;11.714;2023-02-02T06:28:56;111.55;;;44.00;;
78027;SDS011;67235;45.638;11.714;2023-02-02T06:31:25;110.35;;;41.22;;
78027;SDS011;67235;45.638;11.714;2023-02-02T06:33:52;120.17;;;45.30;;
78027;SDS011;67235;45.638;11.714;2023-02-02T06:36:19;149.43;;;54.03;;
78027;SDS011;67235;45.638;11.714;2023-02-02T06:38:49;153.65;;;54.80;;
78027;SDS011;67235;45.638;11.714;2023-02-02T06:41:18;160.27;;;54.42;;
78027;SDS011;67235;45.638;11.714;2023-02-02T06:43:45;141.97;;;48.50;;
78027;SDS011;67235;45.638;11.714;2023-02-02T06:46:13;128.00;;;47.08;;
78027;SDS011;67235;45.638;11.714;2023-02-02T06:48:39;124.85;;;44.45;;
78027;SDS011;67235;45.638;11.714;2023-02-02T06:51:05;123.95;;;43.33;;
78027;SDS011;67235;45.638;11.714;2023-02-02T06:53:31;107.27;;;41.17;;
78027;SDS011;67235;45.638;11.714;2023-02-02T06:55:58;110.30;;;42.30;;
78027;SDS011;67235;45.638;11.714;2023-02-02T06:58:26;113.85;;;43.05;;
78027;SDS011;67235;45.638;11.714;2023-02-02T07:00:52;115.93;;;42.17;;
78027;SDS011;67235;45.638;11.714;2023-02-02T07:03:18;121.15;;;43.92;;
78027;SDS011;67235;45.638;11.714;2023-02-02T07:05:46;104.87;;;41.47;;
78027;SDS011;67235;45.638;11.714;2023-02-02T07:08:13;108.43;;;42.58;;
78027;SDS011;67235;45.638;11.714;2023-02-02T07:10:39;103.30;;;39.70;;
78027;SDS011;67235;45.638;11.714;2023-02-02T07:13:05;112.45;;;41.67;;
78027;SDS011;67235;45.638;11.714;2023-02-02T07:15:36;106.53;;;40.88;;
78027;SDS011;67235;45.638;11.714;2023-02-02T07:18:03;109.00;;;39.17;;
78027;SDS011;67235;45.638;11.714;2023-02-02T07:20:29;113.93;;;44.38;;
78027;SDS011;67235;45.638;11.714;2023-02-02T07:22:55;104.07;;;42.13;;
78027;SDS011;67235;45.638;11.714;2023-02-02T07:25:21;116.55;;;41.58;;
78027;SDS011;67235;45.638;11.714;2023-02-02T07:27:51;106.57;;;42.23;;
78027;SDS011;67235;45.638;11.714;2023-02-02T07:30:17;102.75;;;41.58;;
78027;SDS011;67235;45.638;11.714;2023-02-02T07:32:47;106.60;;;43.40;;
78027;SDS011;67235;45.638;11.714;2023-02-02T07:35:13;98.75;;;40.35;;
78027;SDS011;67235;45.638;11.714;2023-02-02T07:37:40;98.13;;;39.73;;
78027;SDS011;67235;45.638;11.714;2023-02-02T07:40:08;110.90;;;44.10;;
78027;SDS011;67235;45.638;11.714;2023-02-02T07:42:37;119.43;;;49.30;;
78027;SDS011;67235;45.638;11.714;2023-02-02T07:45:04;102.68;;;45.40;;
78027;SDS011;67235;45.638;11.714;2023-02-02T07:47:30;108.30;;;45.45;;
78027;SDS011;67235;45.638;11.714;2023-02-02T07:49:57;101.90;;;45.33;;
78027;SDS011;67235;45.638;11.714;2023-02-02T07:52:23;98.85;;;46.50;;
78027;SDS011;67235;45.638;11.714;2023-02-02T07:54:49;93.63;;;44.85;;
78027;SDS011;67235;45.638;11.714;2023-02-02T07:57:18;98.33;;;48.57;;
78027;SDS011;67235;45.638;11.714;2023-02-02T07:59:43;99.80;;;48.75;;
78027;SDS011;67235;45.638;11.714;2023-02-02T08:02:09;97.40;;;47.42;;
78027;SDS011;67235;45.638;11.714;2023-02-02T08:04:35;102.40;;;51.40;;
78027;SDS011;67235;45.638;11.714;2023-02-02T08:07:01;97.70;;;51.53;;
78027;SDS011;67235;45.638;11.714;2023-02-02T08:09:27;91.03;;;48.17;;
78027;SDS011;67235;45.638;11.714;2023-02-02T08:11:53;90.27;;;47.23;;
78027;SDS011;67235;45.638;11.714;2023-02-02T08:14:19;95.85;;;49.75;;
78027;SDS011;67235;45.638;11.714;2023-02-02T08:16:44;93.72;;;48.08;;
78027;SDS011;67235;45.638;11.714;2023-02-02T08:19:10;90.43;;;46.97;;
78027;SDS011;67235;45.638;11.714;2023-02-02T08:21:36;83.88;;;46.80;;
78027;SDS011;67235;45.638;11.714;2023-02-02T08:24:02;84.37;;;47.20;;
78027;SDS011;67235;45.638;11.714;2023-02-02T08:26:30;81.57;;;45.58;;
78027;SDS011;67235;45.638;11.714;2023-02-02T08:28:57;84.18;;;47.00;;
78027;SDS011;67235;45.638;11.714;2023-02-02T08:31:25;89.00;;;49.88;;
78027;SDS011;67235;45.638;11.714;2023-02-02T08:33:55;86.45;;;48.10;;
78027;SDS011;67235;45.638;11.714;2023-02-02T08:36:23;84.70;;;49.23;;
78027;SDS011;67235;45.638;11.714;2023-02-02T08:38:53;76.68;;;45.58;;
78027;SDS011;67235;45.638;11.714;2023-02-02T08:41:30;81.57;;;48.35;;
78027;SDS011;67235;45.638;11.714;2023-02-02T08:43:57;82.40;;;47.22;;
78027;SDS011;67235;45.638;11.714;2023-02-02T08:46:23;79.47;;;46.85;;
78027;SDS011;67235;45.638;11.714;2023-02-02T08:48:49;83.57;;;48.77;;
78027;SDS011;67235;45.638;11.714;2023-02-02T08:51:17;81.28;;;47.15;;
78027;SDS011;67235;45.638;11.714;2023-02-02T08:53:48;82.28;;;47.47;;
78027;SDS011;67235;45.638;11.714;2023-02-02T08:56:19;90.63;;;51.57;;
78027;SDS011;67235;45.638;11.714;2023-02-02T08:58:47;96.65;;;53.35;;
78027;SDS011;67235;45.638;11.714;2023-02-02T09:01:21;101.75;;;54.33;;
78027;SDS011;67235;45.638;11.714;2023-02-02T09:03:58;103.05;;;55.88;;
78027;SDS011;67235;45.638;11.714;2023-02-02T09:06:38;101.88;;;56.30;;
78027;SDS011;67235;45.638;11.714;2023-02-02T09:09:05;97.50;;;54.03;;
78027;SDS011;67235;45.638;11.714;2023-02-02T09:11:33;94.25;;;53.42;;
78027;SDS011;67235;45.638;11.714;2023-02-02T09:14:00;88.80;;;53.92;;
78027;SDS011;67235;45.638;11.714;2023-02-02T09:16:27;87.80;;;52.40;;
78027;SDS011;67235;45.638;11.714;2023-02-02T09:18:54;89.28;;;52.92;;
78027;SDS011;67235;45.638;11.714;2023-02-02T09:21:20;100.20;;;55.13;;
78027;SDS011;67235;45.638;11.714;2023-02-02T09:23:47;97.13;;;55.30;;
78027;SDS011;67235;45.638;11.714;2023-02-02T09:26:24;97.63;;;56.85;;
78027;SDS011;67235;45.638;11.714;2023-02-02T09:28:52;92.75;;;53.25;;
78027;SDS011;67235;45.638;11.714;2023-02-02T09:31:26;110.10;;;58.05;;
78027;SDS011;67235;45.638;11.714;2023-02-02T09:33:53;104.33;;;56.80;;
78027;SDS011;67235;45.638;11.714;2023-02-02T09:36:20;93.30;;;56.53;;
78027;SDS011;67235;45.638;11.714;2023-02-02T09:38:48;104.72;;;58.97;;
78027;SDS011;67235;45.638;11.714;2023-02-02T09:46:47;92.67;;;54.17;;
78027;SDS011;67235;45.638;11.714;2023-02-02T09:49:52;91.68;;;53.80;;
78027;SDS011;67235;45.638;11.714;2023-02-02T09:52:32;87.85;;;51.78;;
78027;SDS011;67235;45.638;11.714;2023-02-02T09:58:03;89.83;;;53.60;;
78027;SDS011;67235;45.638;11.714;2023-02-02T10:01:07;89.95;;;54.45;;
78027;SDS011;67235;45.638;11.714;2023-02-02T10:06:36;93.88;;;56.35;;
78027;SDS011;67235;45.638;11.714;2023-02-02T10:14:54;91.68;;;56.58;;
78027;SDS011;67235;45.638;11.714;2023-02-02T10:17:45;87.72;;;54.03;;
78027;SDS011;67235;45.638;11.714;2023-02-02T10:20:18;90.93;;;56.25;;
78027;SDS011;67235;45.638;11.714;2023-02-02T10:22:45;92.95;;;55.65;;
78027;SDS011;67235;45.638;11.714;2023-02-02T10:25:13;94.73;;;55.87;;
78027;SDS011;67235;45.638;11.714;2023-02-02T10:27:42;91.82;;;55.97;;
78027;SDS011;67235;45.638;11.714;2023-02-02T10:30:19;90.82;;;55.15;;
78027;SDS011;67235;45.638;11.714;2023-02-02T10:32:56;89.05;;;55.55;;
78027;SDS011;67235;45.638;11.714;2023-02-02T10:38:33;87.70;;;53.17;;
78027;SDS011;67235;45.638;11.714;2023-02-02T10:42:04;93.40;;;55.30;;
78027;SDS011;67235;45.638;11.714;2023-02-02T10:44:29;92.90;;;56.75;;
78027;SDS011;67235;45.638;11.714;2023-02-02T10:46:57;95.35;;;57.30;;
78027;SDS011;67235;45.638;11.714;2023-02-02T10:49:33;99.93;;;60.03;;
78027;SDS011;67235;45.638;11.714;2023-02-02T10:57:51;100.95;;;61.40;;
78027;SDS011;67235;45.638;11.714;2023-02-02T11:03:08;101.82;;;60.50;;
78027;SDS011;67235;45.638;11.714;2023-02-02T11:05:35;104.10;;;61.77;;
78027;SDS011;67235;45.638;11.714;2023-02-02T11:08:42;94.45;;;58.50;;
78027;SDS011;67235;45.638;11.714;2023-02-02T11:11:23;100.22;;;61.22;;
78027;SDS011;67235;45.638;11.714;2023-02-02T11:16:32;97.88;;;60.03;;
78027;SDS011;67235;45.638;11.714;2023-02-02T11:18:59;98.20;;;61.00;;
78027;SDS011;67235;45.638;11.714;2023-02-02T11:21:30;97.82;;;59.03;;
78027;SDS011;67235;45.638;11.714;2023-02-02T11:26:50;95.68;;;61.20;;
78027;SDS011;67235;45.638;11.714;2023-02-02T11:37:58;91.22;;;56.55;;
78027;SDS011;67235;45.638;11.714;2023-02-02T11:40:45;93.20;;;57.83;;
78027;SDS011;67235;45.638;11.714;2023-02-02T11:43:32;96.90;;;59.55;;
78027;SDS011;67235;45.638;11.714;2023-02-02T11:46:05;97.27;;;59.10;;
78027;SDS011;67235;45.638;11.714;2023-02-02T11:49:06;99.15;;;61.47;;
78027;SDS011;67235;45.638;11.714;2023-02-02T11:52:01;101.00;;;59.85;;
78027;SDS011;67235;45.638;11.714;2023-02-02T11:54:31;103.43;;;60.63;;
78027;SDS011;67235;45.638;11.714;2023-02-02T11:57:24;104.03;;;60.92;;
78027;SDS011;67235;45.638;11.714;2023-02-02T11:59:50;104.23;;;62.07;;
78027;SDS011;67235;45.638;11.714;2023-02-02T12:02:46;104.35;;;62.70;;
78027;SDS011;67235;45.638;11.714;2023-02-02T12:08:07;104.43;;;62.15;;
78027;SDS011;67235;45.638;11.714;2023-02-02T12:13:36;105.63;;;62.33;;
78027;SDS011;67235;45.638;11.714;2023-02-02T12:39:01;100.93;;;56.63;;
78027;SDS011;67235;45.638;11.714;2023-02-02T12:44:45;104.47;;;57.72;;
78027;SDS011;67235;45.638;11.714;2023-02-02T12:47:20;102.63;;;57.42;;
78027;SDS011;67235;45.638;11.714;2023-02-02T12:50:03;104.15;;;60.65;;
78027;SDS011;67235;45.638;11.714;2023-02-02T12:52:52;108.07;;;58.83;;
78027;SDS011;67235;45.638;11.714;2023-02-02T12:55:42;111.68;;;59.83;;
78027;SDS011;67235;45.638;11.714;2023-02-02T13:11:36;110.35;;;59.28;;
78027;SDS011;67235;45.638;11.714;2023-02-02T13:16:49;106.10;;;56.58;;
78027;SDS011;67235;45.638;11.714;2023-02-02T13:21:54;106.13;;;57.35;;
78027;SDS011;67235;45.638;11.714;2023-02-02T13:24:25;113.90;;;58.72;;
78027;SDS011;67235;45.638;11.714;2023-02-02T13:26:55;115.45;;;60.15;;
78027;SDS011;67235;45.638;11.714;2023-02-02T13:32:16;113.57;;;59.45;;
78027;SDS011;67235;45.638;11.714;2023-02-02T13:34:54;114.30;;;58.97;;
78027;SDS011;67235;45.638;11.714;2023-02-02T13:40:22;116.33;;;57.20;;
78027;SDS011;67235;45.638;11.714;2023-02-02T14:00:35;116.07;;;57.25;;
78027;SDS011;67235;45.638;11.714;2023-02-02T14:03:21;119.55;;;57.38;;
78027;SDS011;67235;45.638;11.714;2023-02-02T14:06:04;118.82;;;60.13;;
78027;SDS011;67235;45.638;11.714;2023-02-02T14:08:34;129.37;;;62.53;;
78027;SDS011;67235;45.638;11.714;2023-02-02T14:11:01;122.25;;;59.22;;
78027;SDS011;67235;45.638;11.714;2023-02-02T14:13:44;121.78;;;58.88;;
78027;SDS011;67235;45.638;11.714;2023-02-02T14:19:00;123.85;;;59.25;;
78027;SDS011;67235;45.638;11.714;2023-02-02T14:31:57;122.13;;;58.00;;
78027;SDS011;67235;45.638;11.714;2023-02-02T14:45:42;112.13;;;57.03;;
78027;SDS011;67235;45.638;11.714;2023-02-02T14:50:47;124.03;;;62.65;;
78027;SDS011;67235;45.638;11.714;2023-02-02T14:58:44;110.80;;;55.57;;
78027;SDS011;67235;45.638;11.714;2023-02-02T15:01:25;118.55;;;56.83;;
78027;SDS011;67235;45.638;11.714;2023-02-02T15:06:48;121.47;;;58.70;;
78027;SDS011;67235;45.638;11.714;2023-02-02T15:14:30;121.70;;;55.72;;
78027;SDS011;67235;45.638;11.714;2023-02-02T15:25:31;121.07;;;58.00;;
78027;SDS011;67235;45.638;11.714;2023-02-02T15:28:18;126.90;;;57.83;;
78027;SDS011;67235;45.638;11.714;2023-02-02T15:33:58;127.82;;;58.58;;
78027;SDS011;67235;45.638;11.714;2023-02-02T15:36:34;122.93;;;56.72;;
78027;SDS011;67235;45.638;11.714;2023-02-02T15:39:12;124.93;;;58.07;;
78027;SDS011;67235;45.638;11.714;2023-02-02T15:41:52;129.15;;;58.65;;
78027;SDS011;67235;45.638;11.714;2023-02-02T15:44:39;149.20;;;63.50;;
78027;SDS011;67235;45.638;11.714;2023-02-02T15:47:07;145.88;;;63.47;;
78027;SDS011;67235;45.638;11.714;2023-02-02T15:49:38;134.50;;;60.47;;
78027;SDS011;67235;45.638;11.714;2023-02-02T15:52:12;138.32;;;59.78;;
78027;SDS011;67235;45.638;11.714;2023-02-02T15:54:49;133.23;;;60.67;;
78027;SDS011;67235;45.638;11.714;2023-02-02T15:57:34;133.13;;;59.42;;
78027;SDS011;67235;45.638;11.714;2023-02-02T16:00:20;124.35;;;56.58;;
78027;SDS011;67235;45.638;11.714;2023-02-02T16:05:39;119.57;;;55.83;;
78027;SDS011;67235;45.638;11.714;2023-02-02T16:08:29;123.93;;;57.53;;
78027;SDS011;67235;45.638;11.714;2023-02-02T16:13:41;127.35;;;57.72;;
78027;SDS011;67235;45.638;11.714;2023-02-02T16:19:00;130.48;;;58.22;;
78027;SDS011;67235;45.638;11.714;2023-02-02T16:21:44;131.98;;;59.25;;
78027;SDS011;67235;45.638;11.714;2023-02-02T16:24:14;128.27;;;56.80;;
78027;SDS011;67235;45.638;11.714;2023-02-02T16:26:53;122.82;;;58.33;;
78027;SDS011;67235;45.638;11.714;2023-02-02T16:29:22;119.40;;;53.30;;
78027;SDS011;67235;45.638;11.714;2023-02-02T16:31:49;113.95;;;53.33;;
78027;SDS011;67235;45.638;11.714;2023-02-02T16:34:16;140.82;;;68.18;;
78027;SDS011;67235;45.638;11.714;2023-02-02T16:36:43;134.10;;;63.40;;
78027;SDS011;67235;45.638;11.714;2023-02-02T16:39:28;124.80;;;55.75;;
78027;SDS011;67235;45.638;11.714;2023-02-02T16:41:54;115.67;;;53.40;;
78027;SDS011;67235;45.638;11.714;2023-02-02T16:44:52;124.10;;;55.35;;
78027;SDS011;67235;45.638;11.714;2023-02-02T16:52:19;136.00;;;61.53;;
78027;SDS011;67235;45.638;11.714;2023-02-02T16:55:04;144.90;;;61.70;;
78027;SDS011;67235;45.638;11.714;2023-02-02T16:57:33;144.70;;;60.50;;
78027;SDS011;67235;45.638;11.714;2023-02-02T17:00:02;132.38;;;57.60;;
78027;SDS011;67235;45.638;11.714;2023-02-02T17:05:03;138.90;;;60.03;;
78027;SDS011;67235;45.638;11.714;2023-02-02T17:07:47;129.10;;;54.28;;
78027;SDS011;67235;45.638;11.714;2023-02-02T17:10:25;145.55;;;61.22;;
78027;SDS011;67235;45.638;11.714;2023-02-02T17:12:55;139.20;;;59.80;;
78027;SDS011;67235;45.638;11.714;2023-02-02T17:15:24;133.27;;;58.95;;
78027;SDS011;67235;45.638;11.714;2023-02-02T17:17:58;125.67;;;56.00;;
78027;SDS011;67235;45.638;11.714;2023-02-02T17:20:25;123.57;;;54.70;;
78027;SDS011;67235;45.638;11.714;2023-02-02T17:22:53;141.05;;;58.80;;
78027;SDS011;67235;45.638;11.714;2023-02-02T17:25:27;152.75;;;64.07;;
78027;SDS011;67235;45.638;11.714;2023-02-02T17:27:56;145.57;;;63.42;;
78027;SDS011;67235;45.638;11.714;2023-02-02T17:30:24;135.43;;;58.30;;
78027;SDS011;67235;45.638;11.714;2023-02-02T17:32:51;104.18;;;45.78;;
78027;SDS011;67235;45.638;11.714;2023-02-02T17:35:21;139.02;;;58.22;;
78027;SDS011;67235;45.638;11.714;2023-02-02T17:37:49;134.95;;;57.97;;
78027;SDS011;67235;45.638;11.714;2023-02-02T17:40:21;145.97;;;61.33;;
78027;SDS011;67235;45.638;11.714;2023-02-02T17:42:48;141.30;;;64.40;;
78027;SDS011;67235;45.638;11.714;2023-02-02T17:45:17;135.35;;;59.08;;
78027;SDS011;67235;45.638;11.714;2023-02-02T17:47:46;122.53;;;54.65;;
78027;SDS011;67235;45.638;11.714;2023-02-02T17:50:13;138.32;;;60.38;;
78027;SDS011;67235;45.638;11.714;2023-02-02T17:52:39;145.10;;;57.40;;
78027;SDS011;67235;45.638;11.714;2023-02-02T17:55:26;136.38;;;55.75;;